Time;durP1;ratioP1;P1;durP2;ratioP2;P2;SDS_P1;SDS_P2;PMS_P1;PMS_P2;Temp;Humidity;BMP_temperature;BMP_pressure;BME280_temperature;BME280_humidity;BME280_pressure;Samples;Min_cycle;Max_cycle;Signal;HPM_P1;HPM_P2
2024/04/14 00:02:06;;;;;;;9.23;5.60;;;18.10;1.00;;;;;;5467912;26;20031;-78
2024/04/14 00:04:31;;;;;;;7.13;5.72;;;18.00;1.00;;;;;;5468167;26;19990;-78
2024/04/14 00:06:57;;;;;;;9.20;6.32;;;18.00;1.00;;;;;;5468202;26;20304;-78
2024/04/14 00:09:23;;;;;;;6.75;4.88;;;18.00;1.00;;;;;;5475496;26;19999;-78
2024/04/14 00:11:49;;;;;;;7.68;5.82;;;17.90;1.00;;;;;;5473736;26;20424;-78
2024/04/14 00:14:14;;;;;;;5.85;5.35;;;17.90;1.00;;;;;;5470158;26;19998;-78
2024/04/14 00:16:40;;;;;;;7.35;5.93;;;18.00;1.00;;;;;;5473009;26;20071;-79
2024/04/14 00:19:06;;;;;;;7.78;6.55;;;18.00;1.00;;;;;;5455663;26;20575;-78
2024/04/14 00:21:31;;;;;;;6.13;5.53;;;18.00;1.00;;;;;;5442819;26;20432;-78
2024/04/14 00:23:57;;;;;;;9.98;6.70;;;18.00;1.00;;;;;;5442569;26;20010;-78
2024/04/14 00:26:23;;;;;;;7.15;5.82;;;18.00;1.00;;;;;;5471604;26;19994;-78
2024/04/14 00:28:49;;;;;;;7.25;5.80;;;18.00;1.00;;;;;;5470532;26;20005;-78
2024/04/14 00:31:15;;;;;;;8.27;6.05;;;18.00;1.00;;;;;;5472591;26;19990;-78
2024/04/14 00:33:41;;;;;;;6.63;5.53;;;18.00;1.00;;;;;;5437506;26;20383;-78
2024/04/14 00:36:08;;;;;;;6.28;5.68;;;18.00;1.00;;;;;;5474768;26;19994;-78
2024/04/14 00:38:34;;;;;;;7.00;6.30;;;18.00;1.00;;;;;;5473899;26;20036;-78
2024/04/14 00:41:01;;;;;;;8.18;6.55;;;18.00;1.00;;;;;;5467680;26;20001;-78
2024/04/14 00:43:27;;;;;;;9.13;7.18;;;18.00;1.00;;;;;;5436219;26;20027;-78
2024/04/14 00:45:53;;;;;;;12.80;6.35;;;18.00;1.00;;;;;;5456350;26;20002;-78
2024/04/14 00:48:19;;;;;;;8.15;6.22;;;17.90;1.00;;;;;;5467946;26;20013;-78
2024/04/14 00:50:46;;;;;;;7.45;6.60;;;17.90;1.00;;;;;;5456805;26;20008;-78
2024/04/14 00:53:12;;;;;;;8.15;6.50;;;17.90;1.00;;;;;;5467875;26;20002;-78
2024/04/14 00:55:40;;;;;;;14.52;7.10;;;17.90;1.00;;;;;;5474316;26;20091;-78
2024/04/14 00:58:07;;;;;;;7.35;6.63;;;17.90;1.00;;;;;;5467330;26;20007;-79
2024/04/14 01:00:33;;;;;;;7.95;6.50;;;17.90;1.00;;;;;;5474182;26;19998;-78
2024/04/14 01:02:59;;;;;;;6.65;5.93;;;17.90;1.00;;;;;;5450729;26;20092;-78
2024/04/14 01:05:25;;;;;;;7.50;6.68;;;17.90;1.00;;;;;;5473597;26;20451;-78
2024/04/14 01:07:52;;;;;;;7.28;6.55;;;17.80;1.00;;;;;;5468573;26;20263;-79
2024/04/14 01:10:19;;;;;;;9.75;6.75;;;17.80;1.00;;;;;;5440451;26;19991;-78
2024/04/14 01:12:44;;;;;;;9.43;6.45;;;17.80;1.00;;;;;;5473923;26;20099;-78
2024/04/14 01:15:11;;;;;;;10.98;7.25;;;17.80;1.00;;;;;;5451021;26;20440;-79
2024/04/14 01:17:37;;;;;;;7.22;6.60;;;17.80;1.00;;;;;;5474669;26;20457;-78
2024/04/14 01:20:04;;;;;;;8.77;6.65;;;17.80;1.00;;;;;;5439026;26;20011;-78
2024/04/14 01:22:29;;;;;;;12.75;6.85;;;17.70;1.00;;;;;;5438159;26;19990;-78
2024/04/14 01:25:09;;;;;;;10.15;6.28;;;17.70;1.00;;;;;;5471082;26;20009;-78
2024/04/14 01:27:36;;;;;;;9.57;6.55;;;17.70;1.00;;;;;;5467956;26;19991;-79
2024/04/14 01:30:05;;;;;;;11.13;6.40;;;17.70;1.00;;;;;;5472819;26;19998;-78
2024/04/14 01:32:35;;;;;;;9.02;7.13;;;17.70;1.00;;;;;;5467243;26;20003;-78
2024/04/14 01:35:01;;;;;;;7.68;6.43;;;17.60;1.70;;;;;;5435170;26;20425;-78
2024/04/14 01:37:27;;;;;;;7.70;6.53;;;17.60;2.20;;;;;;5435521;26;20352;-78
2024/04/14 01:39:52;;;;;;;12.32;6.55;;;17.60;1.00;;;;;;5472900;26;20006;-78
2024/04/14 01:42:18;;;;;;;8.43;6.57;;;17.60;3.60;;;;;;5479823;26;20454;-78
2024/04/14 01:44:44;;;;;;;15.75;6.38;;;17.60;4.90;;;;;;5468322;26;19990;-78
2024/04/14 01:47:09;;;;;;;8.18;6.25;;;17.60;5.40;;;;;;5471920;26;20081;-78
2024/04/14 01:49:35;;;;;;;8.63;6.80;;;17.60;3.40;;;;;;5468971;26;20422;-78
2024/04/14 01:52:02;;;;;;;10.98;6.32;;;17.60;5.80;;;;;;5474099;26;20336;-78
2024/04/14 01:54:27;;;;;;;8.45;6.47;;;17.50;8.20;;;;;;5470515;26;20004;-78
2024/04/14 01:56:56;;;;;;;10.73;6.75;;;17.60;9.20;;;;;;5463798;26;19998;-78
2024/04/14 01:59:24;;;;;;;6.72;5.88;;;17.60;8.40;;;;;;5469772;26;19994;-78
2024/04/14 02:01:50;;;;;;;8.48;6.78;;;17.60;9.00;;;;;;5474250;26;20071;-78
2024/04/14 02:04:16;;;;;;;9.00;7.03;;;17.60;7.80;;;;;;5469570;26;20003;-78
2024/04/14 02:06:41;;;;;;;9.88;6.47;;;17.60;5.60;;;;;;5468517;26;19998;-78
2024/04/14 02:09:07;;;;;;;7.18;6.10;;;17.60;8.30;;;;;;5441571;26;19990;-78
2024/04/14 02:11:33;;;;;;;9.85;6.35;;;17.60;1.00;;;;;;5468053;26;20540;-78
2024/04/14 02:13:58;;;;;;;7.72;6.88;;;17.60;4.80;;;;;;5471457;26;19997;-78
2024/04/14 02:16:24;;;;;;;11.77;6.40;;;17.60;7.80;;;;;;5467303;26;20002;-78
2024/04/14 02:18:50;;;;;;;8.80;6.85;;;17.60;8.70;;;;;;5472701;26;20641;-78
2024/04/14 02:21:16;;;;;;;9.77;7.30;;;17.60;9.30;;;;;;5466446;26;19998;-78
2024/04/14 02:23:41;;;;;;;10.38;6.35;;;17.60;8.90;;;;;;5471138;26;19990;-78
2024/04/14 02:26:07;;;;;;;10.82;6.22;;;17.50;13.40;;;;;;5466434;26;19991;-78
2024/04/14 02:28:33;;;;;;;13.55;6.88;;;17.60;8.20;;;;;;5472078;26;20451;-78
2024/04/14 02:30:59;;;;;;;10.63;6.78;;;17.60;5.70;;;;;;5465358;26;20043;-78
2024/04/14 02:33:25;;;;;;;8.90;6.50;;;17.60;8.10;;;;;;5467526;26;19999;-78
2024/04/14 02:35:59;;;;;;;12.20;6.03;;;17.60;2.90;;;;;;5470987;26;20002;-78
2024/04/14 02:38:25;;;;;;;7.13;6.43;;;17.60;2.50;;;;;;5433866;26;20204;-78
2024/04/14 02:41:01;;;;;;;10.75;6.53;;;17.60;2.40;;;;;;5473319;26;20001;-78
2024/04/14 02:43:27;;;;;;;7.82;7.07;;;17.60;4.60;;;;;;5466964;26;19991;-78
2024/04/14 02:45:54;;;;;;;8.02;7.18;;;17.60;6.20;;;;;;5471453;26;20071;-78
2024/04/14 02:48:20;;;;;;;7.82;6.90;;;17.50;10.50;;;;;;5466791;26;19999;-78
2024/04/14 02:50:46;;;;;;;6.47;5.85;;;17.50;13.50;;;;;;5472037;26;19994;-78
2024/04/14 02:53:12;;;;;;;8.60;6.80;;;17.50;16.30;;;;;;5465966;26;20007;-78
2024/04/14 02:55:38;;;;;;;7.53;6.75;;;17.40;20.20;;;;;;5472153;26;19998;-78
2024/04/14 02:58:05;;;;;;;6.85;6.25;;;17.50;21.90;;;;;;5465678;26;19995;-78
2024/04/14 03:00:31;;;;;;;11.60;6.53;;;17.40;23.80;;;;;;5471801;26;19990;-78
2024/04/14 03:02:56;;;;;;;9.75;6.80;;;17.40;26.80;;;;;;5466178;26;20309;-78
2024/04/14 03:05:23;;;;;;;9.23;6.30;;;17.40;27.00;;;;;;5471026;26;20000;-78
2024/04/14 03:07:52;;;;;;;10.80;6.35;;;17.40;24.40;;;;;;5434676;26;19995;-78
2024/04/14 03:10:18;;;;;;;6.80;6.10;;;17.40;23.80;;;;;;5463945;26;20002;-78
2024/04/14 03:12:44;;;;;;;7.63;6.47;;;17.40;28.20;;;;;;5466763;26;20348;-78
2024/04/14 03:15:11;;;;;;;10.80;7.30;;;17.30;31.30;;;;;;5470215;26;20045;-78
2024/04/14 03:17:37;;;;;;;9.57;6.97;;;17.30;35.80;;;;;;5467473;26;20006;-78
2024/04/14 03:20:05;;;;;;;9.27;6.85;;;17.30;33.50;;;;;;5437833;26;20437;-78
2024/04/14 03:22:31;;;;;;;9.07;6.68;;;17.30;34.20;;;;;;5467817;26;20507;-78
2024/04/14 03:24:57;;;;;;;9.70;7.18;;;17.30;32.00;;;;;;5437258;26;20001;-78
2024/04/14 03:27:23;;;;;;;7.78;6.60;;;17.30;28.70;;;;;;5467818;26;20378;-78
2024/04/14 03:29:49;;;;;;;7.70;6.95;;;17.30;26.30;;;;;;5463264;26;20091;-78
2024/04/14 03:32:15;;;;;;;15.23;7.57;;;17.30;23.20;;;;;;5435681;26;19994;-78
2024/04/14 03:34:44;;;;;;;7.43;6.65;;;17.30;25.90;;;;;;5469576;26;20441;-79
2024/04/14 03:37:13;;;;;;;8.50;6.50;;;17.30;26.40;;;;;;5467693;26;20441;-78
2024/04/14 03:39:38;;;;;;;8.35;6.70;;;17.30;29.40;;;;;;5479274;26;19994;-79
2024/04/14 03:42:04;;;;;;;8.68;7.40;;;17.30;29.80;;;;;;5471410;26;20521;-78
2024/04/14 03:44:30;;;;;;;9.73;6.65;;;17.30;33.70;;;;;;5455563;26;19994;-78
2024/04/14 03:46:56;;;;;;;9.35;6.97;;;17.30;33.30;;;;;;5468539;26;19995;-78
2024/04/14 03:49:22;;;;;;;7.97;6.97;;;17.20;31.60;;;;;;5469891;26;20531;-78
2024/04/14 03:51:47;;;;;;;9.68;7.07;;;17.30;29.10;;;;;;5474118;26;20544;-78
2024/04/14 03:54:14;;;;;;;9.70;6.72;;;17.20;34.00;;;;;;5467158;26;20002;-78
2024/04/14 03:56:39;;;;;;;8.27;6.53;;;17.10;36.40;;;;;;5475171;26;20005;-78
2024/04/14 03:59:06;;;;;;;9.63;7.00;;;17.20;32.60;;;;;;5468501;26;19999;-78
2024/04/14 04:01:31;;;;;;;12.60;6.78;;;17.20;35.70;;;;;;5468243;26;19999;-78
2024/04/14 04:03:57;;;;;;;7.75;6.65;;;17.20;34.50;;;;;;5474795;26;20642;-78
2024/04/14 04:06:23;;;;;;;7.68;6.53;;;17.20;35.30;;;;;;5468833;26;20444;-78
2024/04/14 04:08:49;;;;;;;9.07;6.70;;;17.20;33.60;;;;;;5468656;26;19995;-78
2024/04/14 04:11:14;;;;;;;7.35;6.60;;;17.20;33.30;;;;;;5471350;26;19994;-78
2024/04/14 04:13:40;;;;;;;7.00;6.05;;;17.20;32.40;;;;;;5470204;26;20482;-78
2024/04/14 04:16:06;;;;;;;6.47;5.88;;;17.20;31.00;;;;;;5472362;26;20043;-78
2024/04/14 04:18:33;;;;;;;8.85;6.30;;;17.30;31.40;;;;;;5438398;26;19998;-78
2024/04/14 04:21:01;;;;;;;9.52;6.70;;;17.30;30.60;;;;;;5468284;26;19994;-79
2024/04/14 04:23:27;;;;;;;7.60;6.90;;;17.20;31.90;;;;;;5472037;26;20031;-78
2024/04/14 04:25:55;;;;;;;9.05;6.53;;;17.30;27.20;;;;;;5471184;26;19994;-78
2024/04/14 04:28:22;;;;;;;7.10;6.38;;;17.30;31.60;;;;;;5475447;26;20001;-78
2024/04/14 04:30:48;;;;;;;16.17;6.78;;;17.30;29.80;;;;;;5467657;26;19991;-79
2024/04/14 04:33:16;;;;;;;10.70;6.65;;;17.30;30.10;;;;;;5438697;26;19995;-79
2024/04/14 04:35:56;;;;;;;11.75;6.88;;;17.30;33.00;;;;;;5471467;26;19990;-78
2024/04/14 04:38:25;;;;;;;11.40;6.47;;;17.20;35.40;;;;;;5474327;26;20066;-78
2024/04/14 04:40:52;;;;;;;8.13;6.57;;;17.20;36.80;;;;;;5436254;26;19995;-78
2024/04/14 04:43:22;;;;;;;7.60;6.47;;;17.20;37.30;;;;;;5435962;26;20010;-78
2024/04/14 04:45:51;;;;;;;11.00;5.72;;;17.20;32.50;;;;;;5467783;26;20413;-78
2024/04/14 04:48:17;;;;;;;7.65;6.72;;;17.20;31.90;;;;;;5467162;26;20448;-78
2024/04/14 04:50:46;;;;;;;9.50;6.75;;;17.20;30.10;;;;;;5466808;26;20027;-78
2024/04/14 04:53:13;;;;;;;8.98;5.85;;;17.30;27.30;;;;;;5444638;26;20007;-78
2024/04/14 04:55:39;;;;;;;10.57;6.20;;;17.30;26.30;;;;;;5442230;26;20010;-78
2024/04/14 04:58:05;;;;;;;11.02;6.90;;;17.30;33.00;;;;;;5467263;26;20005;-79
2024/04/14 05:00:31;;;;;;;7.63;5.78;;;17.30;29.90;;;;;;5474373;26;19990;-78
2024/04/14 05:02:56;;;;;;;16.02;6.47;;;17.30;29.50;;;;;;5467915;26;20476;-78
2024/04/14 05:05:22;;;;;;;11.65;6.10;;;17.30;31.20;;;;;;5474779;26;20067;-78
2024/04/14 05:07:48;;;;;;;8.98;6.88;;;17.20;33.80;;;;;;5472712;26;20476;-78
2024/04/14 05:10:13;;;;;;;13.38;6.88;;;17.20;35.20;;;;;;5465865;26;19999;-78
2024/04/14 05:12:39;;;;;;;8.85;6.50;;;17.20;37.30;;;;;;5485052;26;20012;-78
2024/04/14 05:15:06;;;;;;;9.98;6.50;;;17.20;38.70;;;;;;5469533;26;20002;-78
2024/04/14 05:17:32;;;;;;;8.73;6.00;;;17.20;35.60;;;;;;5470556;26;19995;-78
2024/04/14 05:19:58;;;;;;;8.70;6.18;;;17.30;35.20;;;;;;5469360;26;20043;-78
2024/04/14 05:22:24;;;;;;;8.02;6.25;;;17.30;32.30;;;;;;5469363;26;20019;-78
2024/04/14 05:24:49;;;;;;;8.93;6.07;;;17.30;39.80;;;;;;5469342;26;20508;-78
2024/04/14 05:27:16;;;;;;;9.70;6.07;;;17.30;41.60;;;;;;5468883;26;20401;-78
2024/04/14 05:29:45;;;;;;;8.68;6.60;;;17.30;46.70;;;;;;5443115;26;20010;-78
2024/04/14 05:32:15;;;;;;;8.50;6.43;;;17.20;53.90;;;;;;5474432;26;20002;-78
2024/04/14 05:34:42;;;;;;;7.20;5.55;;;17.30;43.20;;;;;;5446869;26;19995;-78
2024/04/14 05:37:08;;;;;;;8.25;5.80;;;17.30;42.50;;;;;;5468802;26;20001;-78
2024/04/14 05:39:34;;;;;;;10.18;6.15;;;17.40;40.50;;;;;;5470117;26;19995;-78
2024/04/14 05:42:00;;;;;;;10.00;6.72;;;17.40;40.30;;;;;;5468233;26;20440;-78
2024/04/14 05:44:26;;;;;;;8.02;5.90;;;17.50;37.80;;;;;;5473232;26;20504;-78
2024/04/14 05:46:51;;;;;;;11.35;6.00;;;17.50;39.00;;;;;;5472159;26;20005;-78
2024/04/14 05:49:20;;;;;;;6.82;5.60;;;17.50;37.70;;;;;;5467420;26;20002;-78
2024/04/14 05:51:46;;;;;;;7.57;5.70;;;17.50;38.10;;;;;;5472584;26;19994;-79
2024/04/14 05:54:12;;;;;;;7.40;5.88;;;17.60;42.50;;;;;;5460032;26;20393;-78
2024/04/14 05:56:38;;;;;;;8.07;5.80;;;17.60;45.40;;;;;;5455833;26;20006;-78
2024/04/14 05:59:03;;;;;;;9.77;6.65;;;17.60;47.60;;;;;;5466776;26;19991;-79
2024/04/14 06:01:29;;;;;;;7.43;6.32;;;17.70;48.60;;;;;;5472965;26;19994;-78
2024/04/14 06:03:55;;;;;;;8.38;7.05;;;17.70;48.10;;;;;;5449584;26;20436;-78
2024/04/14 06:06:21;;;;;;;6.50;5.90;;;17.70;55.10;;;;;;5440398;26;19998;-78
2024/04/14 06:08:46;;;;;;;8.15;6.45;;;17.70;54.40;;;;;;5467579;26;20353;-78
2024/04/14 06:11:12;;;;;;;10.18;6.55;;;17.80;53.00;;;;;;5474360;26;20007;-78
2024/04/14 06:13:38;;;;;;;12.95;6.78;;;17.90;62.80;;;;;;5471266;26;20002;-78
2024/04/14 06:16:04;;;;;;;9.68;6.30;;;17.90;63.40;;;;;;5469262;26;20435;-78
2024/04/14 06:18:29;;;;;;;10.90;7.43;;;17.90;64.40;;;;;;5470245;26;20557;-78
2024/04/14 06:20:55;;;;;;;9.68;6.80;;;18.00;76.00;;;;;;5470081;26;20001;-78
2024/04/14 06:23:21;;;;;;;12.32;7.65;;;18.00;85.50;;;;;;5466967;26;19990;-78
2024/04/14 06:25:46;;;;;;;10.77;7.50;;;18.00;91.70;;;;;;5468248;26;19994;-78
2024/04/14 06:28:12;;;;;;;11.85;6.80;;;18.10;92.10;;;;;;5471535;26;19998;-78
2024/04/14 06:30:37;;;;;;;7.60;6.53;;;18.20;78.70;;;;;;5436157;26;19990;-78
2024/04/14 06:33:04;;;;;;;8.18;6.53;;;18.20;66.80;;;;;;5472394;26;20043;-78
2024/04/14 06:35:30;;;;;;;8.75;7.22;;;18.20;73.10;;;;;;5466492;26;20006;-78
2024/04/14 06:37:56;;;;;;;8.75;6.50;;;18.20;71.50;;;;;;5472915;26;20013;-78
2024/04/14 06:40:22;;;;;;;12.38;7.00;;;18.30;81.60;;;;;;5469115;26;20010;-78
2024/04/14 06:42:47;;;;;;;9.35;6.70;;;18.30;78.80;;;;;;5465228;26;20023;-78
2024/04/14 06:45:13;;;;;;;8.43;6.75;;;18.30;98.00;;;;;;5473993;26;19990;-78
2024/04/14 06:47:39;;;;;;;13.35;7.00;;;18.30;90.80;;;;;;5466202;26;20018;-78
2024/04/14 06:50:07;;;;;;;8.70;7.20;;;18.40;81.30;;;;;;5434939;26;20708;-78
2024/04/14 06:52:32;;;;;;;8.50;6.90;;;18.40;70.50;;;;;;5450966;26;20003;-78
2024/04/14 06:54:58;;;;;;;8.05;7.25;;;18.50;65.80;;;;;;5471243;26;19990;-78
2024/04/14 06:57:24;;;;;;;18.40;8.05;;;18.60;65.50;;;;;;5469014;26;19998;-78
2024/04/14 06:59:49;;;;;;;13.70;7.90;;;18.60;65.30;;;;;;5471336;26;19995;-78
2024/04/14 07:02:15;;;;;;;11.68;8.95;;;18.60;56.10;;;;;;5471431;26;19998;-78
2024/04/14 07:04:41;;;;;;;17.83;10.15;;;18.70;67.60;;;;;;5462871;26;20006;-78
2024/04/14 07:07:06;;;;;;;10.77;9.43;;;18.80;49.00;;;;;;5470062;26;20321;-78
2024/04/14 07:09:32;;;;;;;11.75;10.13;;;18.90;46.80;;;;;;5467692;26;19995;-78
2024/04/14 07:11:57;;;;;;;15.20;9.95;;;19.00;52.40;;;;;;5465353;26;20005;-78
2024/04/14 07:14:24;;;;;;;14.27;11.82;;;19.10;44.30;;;;;;5474719;26;20225;-78
2024/04/14 07:16:49;;;;;;;18.13;11.65;;;19.20;19.90;;;;;;5476822;26;20009;-79
2024/04/14 07:19:15;;;;;;;19.08;11.52;;;19.30;25.60;;;;;;5469947;26;20019;-78
2024/04/14 07:21:41;;;;;;;14.55;11.40;;;19.30;33.80;;;;;;5469006;26;20333;-78
2024/04/14 07:24:07;;;;;;;16.30;11.40;;;19.30;43.90;;;;;;5476439;26;20005;-78
2024/04/14 07:26:35;;;;;;;15.50;11.30;;;19.30;56.00;;;;;;5469275;26;19991;-78
2024/04/14 07:29:01;;;;;;;14.88;12.32;;;19.30;54.80;;;;;;5468500;26;20002;-78
2024/04/14 07:31:26;;;;;;;22.58;12.73;;;19.30;68.00;;;;;;5475876;26;20331;-78
2024/04/14 07:34:03;;;;;;;14.80;11.10;;;19.40;53.50;;;;;;5443608;26;19994;-78
2024/04/14 07:36:29;;;;;;;13.40;11.32;;;19.40;59.50;;;;;;5469269;26;19998;-78
2024/04/14 07:38:58;;;;;;;17.25;11.38;;;19.40;50.40;;;;;;5443613;26;20069;-78
2024/04/14 07:41:24;;;;;;;20.58;11.73;;;19.50;33.40;;;;;;5471815;26;19995;-78
2024/04/14 07:43:51;;;;;;;16.58;11.75;;;19.60;25.80;;;;;;5475402;26;20394;-78
2024/04/14 07:46:17;;;;;;;21.77;11.65;;;19.50;29.00;;;;;;5475400;26;20322;-78
2024/04/14 07:48:43;;;;;;;24.58;13.20;;;19.60;57.70;;;;;;5474852;26;20039;-78
2024/04/14 07:51:09;;;;;;;21.20;11.65;;;19.60;51.90;;;;;;5468285;26;20057;-78
2024/04/14 07:53:35;;;;;;;17.60;11.00;;;19.70;69.60;;;;;;5451528;26;19998;-78
2024/04/14 07:56:00;;;;;;;19.30;12.02;;;19.60;69.10;;;;;;5474223;26;20006;-78
2024/04/14 07:58:26;;;;;;;22.65;13.68;;;19.70;55.90;;;;;;5443220;26;19994;-78
2024/04/14 08:00:52;;;;;;;20.45;13.82;;;19.80;84.70;;;;;;5469727;26;19995;-78
2024/04/14 08:03:17;;;;;;;19.15;12.95;;;19.80;57.80;;;;;;5472605;26;20006;-78
2024/04/14 08:05:43;;;;;;;20.33;14.07;;;19.90;51.80;;;;;;5471210;26;19995;-78
2024/04/14 08:08:09;;;;;;;18.85;12.35;;;19.90;36.80;;;;;;5472267;26;20003;-78
2024/04/14 08:10:35;;;;;;;19.00;13.00;;;19.90;49.80;;;;;;5471747;26;20001;-78
2024/04/14 08:13:02;;;;;;;17.13;12.63;;;19.90;43.70;;;;;;5439458;26;20003;-78
2024/04/14 08:15:27;;;;;;;15.30;12.77;;;20.00;51.60;;;;;;5472117;26;19998;-78
2024/04/14 08:17:56;;;;;;;27.45;13.25;;;20.00;80.30;;;;;;5470651;26;20121;-78
2024/04/14 08:20:25;;;;;;;20.10;12.98;;;20.00;70.80;;;;;;5472043;26;20009;-78
2024/04/14 08:22:51;;;;;;;20.70;13.02;;;20.10;56.80;;;;;;5470743;26;20061;-78
2024/04/14 08:25:17;;;;;;;21.90;14.00;;;20.20;50.50;;;;;;5469696;26;20001;-78
2024/04/14 08:27:43;;;;;;;17.27;13.20;;;20.20;44.10;;;;;;5449890;26;19995;-78
2024/04/14 08:30:10;;;;;;;23.25;13.52;;;20.30;53.60;;;;;;5468924;26;19998;-78
2024/04/14 08:32:36;;;;;;;21.20;12.00;;;20.40;33.70;;;;;;5468306;26;20006;-78
2024/04/14 08:35:03;;;;;;;18.10;12.90;;;20.40;39.00;;;;;;5472893;26;19997;-78
2024/04/14 08:37:28;;;;;;;15.73;11.27;;;20.60;14.20;;;;;;5468268;26;20453;-78
2024/04/14 08:39:54;;;;;;;16.33;11.40;;;20.70;34.50;;;;;;5442408;26;19995;-78
2024/04/14 08:42:20;;;;;;;16.05;10.90;;;20.70;28.30;;;;;;5474290;26;20009;-78
2024/04/14 08:44:48;;;;;;;16.30;11.63;;;20.80;26.30;;;;;;5468049;26;20023;-78
2024/04/14 08:47:17;;;;;;;18.15;12.02;;;20.90;20.70;;;;;;5467359;26;20077;-78
2024/04/14 08:49:44;;;;;;;16.27;12.13;;;20.80;18.20;;;;;;5474228;26;20353;-78
2024/04/14 08:52:11;;;;;;;17.75;11.98;;;20.90;1.00;;;;;;5467542;26;20421;-78
2024/04/14 08:54:38;;;;;;;16.60;12.35;;;21.00;1.00;;;;;;5474339;26;20005;-78
2024/04/14 08:57:05;;;;;;;16.48;13.02;;;21.00;1.00;;;;;;5467684;26;20016;-78
2024/04/14 08:59:31;;;;;;;19.55;13.85;;;20.90;8.50;;;;;;5467445;26;19991;-78
2024/04/14 09:02:03;;;;;;;21.83;14.10;;;20.90;30.00;;;;;;5456829;26;20004;-79
2024/04/14 09:04:28;;;;;;;;;;;20.90;22.70;;;;;;5468055;26;20562;-78
2024/04/14 09:06:54;;;;;;;21.23;15.48;;;21.00;27.00;;;;;;5474055;26;19968;-78
2024/04/14 09:09:20;;;;;;;18.50;14.63;;;20.90;16.50;;;;;;5473899;26;19994;-78
2024/04/14 09:11:53;;;;;;;22.95;13.85;;;21.00;1.00;;;;;;5467708;26;20184;-78
2024/04/14 09:14:19;;;;;;;18.67;15.35;;;21.00;18.70;;;;;;5467905;26;20366;-78
2024/04/14 09:16:45;;;;;;;20.55;14.20;;;21.00;1.00;;;;;;5466744;26;20005;-78
2024/04/14 09:19:11;;;;;;;21.58;13.65;;;21.10;11.60;;;;;;5473764;26;20006;-78
2024/04/14 09:21:40;;;;;;;20.88;12.77;;;21.10;1.00;;;;;;5435002;26;20405;-78
2024/04/14 09:24:06;;;;;;;23.20;12.77;;;21.20;22.40;;;;;;5474240;26;20005;-78
2024/04/14 09:26:32;;;;;;;18.83;12.57;;;21.40;30.00;;;;;;5443007;26;19994;-79
2024/04/14 09:29:04;;;;;;;18.30;13.48;;;21.40;8.10;;;;;;5473428;26;19998;-78
2024/04/14 09:31:30;;;;;;;20.25;13.15;;;21.50;6.90;;;;;;5467186;26;20040;-78
2024/04/14 09:33:59;;;;;;;14.25;11.52;;;21.50;25.50;;;;;;5473583;26;19994;-78
2024/04/14 09:36:26;;;;;;;19.88;11.48;;;21.50;30.40;;;;;;5478770;26;20451;-78
2024/04/14 09:38:56;;;;;;;19.23;11.95;;;21.50;18.20;;;;;;5440857;26;20328;-78
2024/04/14 09:41:22;;;;;;;18.17;13.40;;;21.50;1.00;;;;;;5466949;26;20070;-78
2024/04/14 09:43:52;;;;;;;13.90;11.55;;;21.40;5.80;;;;;;5441442;26;20001;-78
2024/04/14 09:46:18;;;;;;;20.00;11.90;;;21.50;1.00;;;;;;5435703;26;20343;-78
2024/04/14 09:48:45;;;;;;;22.10;15.20;;;21.70;1.00;;;;;;5441094;26;19994;-78
2024/04/14 09:51:13;;;;;;;17.38;11.77;;;21.70;1.70;;;;;;5466819;26;20473;-78
2024/04/14 09:53:41;;;;;;;17.35;11.65;;;21.90;4.20;;;;;;5472852;26;19994;-78
2024/04/14 09:56:07;;;;;;;19.08;11.40;;;22.00;1.00;;;;;;5467565;26;20005;-78
2024/04/14 09:58:33;;;;;;;19.90;10.95;;;22.10;1.00;;;;;;5473137;26;20339;-78
2024/04/14 10:01:06;;;;;;;14.82;10.40;;;22.00;1.00;;;;;;5466343;26;19995;-78
2024/04/14 10:03:34;;;;;;;14.52;9.95;;;22.20;1.00;;;;;;5466808;26;19991;-78
2024/04/14 10:06:01;;;;;;;11.45;7.93;;;22.30;1.00;;;;;;5435710;26;20036;-78
2024/04/14 10:08:32;;;;;;;14.50;7.97;;;22.50;1.00;;;;;;5473272;26;20026;-78
2024/04/14 10:10:58;;;;;;;9.75;7.38;;;22.60;1.00;;;;;;5468640;26;20006;-78
2024/04/14 10:13:24;;;;;;;7.40;6.70;;;22.60;99.90;;;;;;5472675;26;19994;-78
2024/04/14 10:15:58;;;;;;;8.40;5.65;;;22.60;1.00;;;;;;5454249;26;20488;-78
2024/04/14 10:18:34;;;;;;;6.90;5.13;;;22.60;99.90;;;;;;5466667;26;20001;-78
2024/04/14 10:21:01;;;;;;;12.50;4.88;;;22.60;99.90;;;;;;5439849;26;19990;-78
2024/04/14 10:23:27;;;;;;;8.38;4.32;;;22.70;99.90;;;;;;5467728;26;20040;-78
2024/04/14 10:25:53;;;;;;;6.20;4.53;;;23.00;58.30;;;;;;5470877;26;19994;-78
2024/04/14 10:28:23;;;;;;;10.35;4.38;;;22.90;1.00;;;;;;5468943;26;19998;-78
2024/04/14 10:31:02;;;;;;;5.40;3.80;;;23.20;1.00;;;;;;5470797;26;20436;-78
2024/04/14 10:33:28;;;;;;;8.55;4.47;;;23.40;99.90;;;;;;5466221;26;20013;-78
2024/04/14 10:36:04;;;;;;;7.70;4.88;;;23.30;99.90;;;;;;5473215;26;19994;-78
2024/04/14 10:38:34;;;;;;;9.23;4.30;;;23.30;99.90;;;;;;5468051;26;20023;-78
2024/04/14 10:41:00;;;;;;;5.55;4.00;;;23.50;99.90;;;;;;5469357;26;20516;-78
2024/04/14 10:43:27;;;;;;;5.07;4.13;;;23.50;99.90;;;;;;5470251;26;19997;-78
2024/04/14 10:45:53;;;;;;;7.18;4.43;;;23.60;99.90;;;;;;5467989;26;19995;-78
2024/04/14 10:48:18;;;;;;;11.35;5.60;;;23.80;99.90;;;;;;5469453;26;20067;-78
2024/04/14 10:50:45;;;;;;;8.77;4.68;;;23.90;99.90;;;;;;5467227;26;20009;-78
2024/04/14 10:53:11;;;;;;;13.65;5.43;;;24.00;99.90;;;;;;5471645;26;19994;-78
2024/04/14 10:55:36;;;;;;;11.88;4.80;;;24.30;99.90;;;;;;5465375;26;20063;-78
2024/04/14 10:58:02;;;;;;;6.63;5.05;;;24.40;99.90;;;;;;5468914;26;19995;-78
2024/04/14 11:00:29;;;;;;;7.00;5.25;;;24.40;99.90;;;;;;5473081;26;19999;-78
2024/04/14 12:30:26;;;;;;;21.92;13.68;;;26.40;99.90;;;;;;5451870;21;20000;-77
2024/04/14 12:32:53;;;;;;;20.73;12.77;;;26.50;99.90;;;;;;5399278;26;20068;-77
2024/04/14 12:35:19;;;;;;;26.58;15.55;;;26.60;99.90;;;;;;5381278;26;19995;-77
2024/04/14 12:37:45;;;;;;;21.48;15.18;;;26.60;99.90;;;;;;5386750;26;20346;-77
2024/04/14 12:40:10;;;;;;;21.73;14.68;;;26.60;99.90;;;;;;5389618;26;20041;-77
2024/04/14 12:42:36;;;;;;;18.67;14.13;;;26.70;99.90;;;;;;5385780;26;20311;-77
2024/04/14 12:45:02;;;;;;;19.80;14.32;;;26.80;99.90;;;;;;5388620;26;20073;-77
2024/04/14 12:47:28;;;;;;;29.58;14.48;;;26.90;99.90;;;;;;5392447;26;19996;-77
2024/04/14 12:49:55;;;;;;;22.75;14.60;;;27.00;99.90;;;;;;5388833;26;21112;-77
2024/04/14 12:52:21;;;;;;;21.00;13.98;;;26.90;99.90;;;;;;5387592;26;20012;-77
2024/04/14 12:54:46;;;;;;;16.80;12.00;;;27.00;99.90;;;;;;5389314;26;20452;-77
2024/04/14 12:57:12;;;;;;;17.00;12.10;;;27.10;99.90;;;;;;5388368;26;20477;-77
2024/04/14 12:59:38;;;;;;;21.35;13.88;;;27.20;99.90;;;;;;5390278;26;20008;-77
2024/04/14 13:02:04;;;;;;;16.92;12.45;;;27.30;99.90;;;;;;5387252;26;19996;-77
2024/04/14 13:04:29;;;;;;;16.77;13.45;;;27.30;99.90;;;;;;5387444;26;20008;-77
2024/04/14 13:06:58;;;;;;;18.35;14.25;;;27.40;99.90;;;;;;5389482;26;19995;-77
2024/04/14 13:09:24;;;;;;;15.00;12.15;;;27.50;99.90;;;;;;5399880;26;19996;-77
2024/04/14 13:11:50;;;;;;;17.75;12.43;;;27.60;99.90;;;;;;5389845;26;20010;-77
2024/04/14 13:14:15;;;;;;;22.98;13.38;;;27.60;99.90;;;;;;5392691;26;20381;-77
2024/04/14 13:16:41;;;;;;;16.38;11.10;;;27.70;99.90;;;;;;5385071;26;20000;-77
2024/04/14 13:19:07;;;;;;;20.42;11.48;;;27.80;79.50;;;;;;5392068;26;20421;-77
2024/04/14 13:21:33;;;;;;;28.65;13.18;;;27.90;52.80;;;;;;5384301;26;19996;-77
2024/04/14 13:23:59;;;;;;;14.00;11.65;;;27.80;28.50;;;;;;5385488;26;20020;-74
2024/04/14 13:26:27;;;;;;;18.90;12.10;;;27.80;43.10;;;;;;5392735;26;20089;-74
2024/04/14 13:28:53;;;;;;;15.63;13.43;;;27.90;99.90;;;;;;5389424;26;20521;-77
2024/04/14 13:31:19;;;;;;;17.35;11.18;;;27.90;58.90;;;;;;5384384;26;20014;-77
2024/04/14 13:33:46;;;;;;;16.85;10.18;;;28.00;99.90;;;;;;5392803;26;20392;-77
2024/04/14 13:36:11;;;;;;;14.10;10.23;;;28.00;10.20;;;;;;5392105;26;19999;-77
2024/04/14 13:38:37;;;;;;;17.70;11.60;;;28.00;1.00;;;;;;5387214;26;20003;-77
2024/04/14 13:41:05;;;;;;;12.90;10.30;;;28.10;1.00;;;;;;5399709;26;20003;-77
2024/04/14 13:43:31;;;;;;;15.02;11.30;;;28.20;1.00;;;;;;5397038;26;19996;-77
2024/04/14 13:45:57;;;;;;;15.73;11.77;;;28.20;1.00;;;;;;5387249;26;20010;-77
2024/04/14 13:48:23;;;;;;;15.13;10.43;;;28.20;1.00;;;;;;5385435;26;20734;-77
2024/04/14 13:50:49;;;;;;;15.05;9.55;;;28.40;3.00;;;;;;5387574;26;20003;-77
2024/04/14 13:53:15;;;;;;;15.20;10.57;;;28.40;18.00;;;;;;5401439;26;20433;-77
2024/04/14 13:55:40;;;;;;;16.10;9.88;;;28.50;2.80;;;;;;5406025;26;19999;-77
2024/04/14 13:58:06;;;;;;;16.05;10.63;;;28.60;1.00;;;;;;5396106;26;19996;-77
2024/04/14 14:00:37;;;;;;;19.63;13.10;;;28.50;1.00;;;;;;5384026;26;20010;-77
2024/04/14 14:03:03;;;;;;;14.75;12.25;;;28.50;1.00;;;;;;5411015;26;20014;-77
2024/04/14 14:05:30;;;;;;;11.68;9.35;;;28.60;1.00;;;;;;5403675;26;19999;-77